createdAt,value
2023-03-12T00:02:00.387Z,-1.73
2023-03-12T00:04:27.962Z,-1.68
2023-03-12T00:06:54.517Z,-1.67
2023-03-12T00:09:21.182Z,-1.65
2023-03-12T00:11:47.752Z,-1.62
2023-03-12T00:14:14.581Z,-1.60
2023-03-12T00:16:41.261Z,-1.58
2023-03-12T00:19:07.848Z,-1.56
2023-03-12T00:21:34.405Z,-1.56
2023-03-12T00:24:01.080Z,-1.56
2023-03-12T00:26:27.929Z,-1.54
2023-03-12T00:28:54.467Z,-1.55
2023-03-12T00:31:27.579Z,-1.54
2023-03-12T00:33:55.622Z,-1.52
2023-03-12T00:36:24.915Z,-1.53
2023-03-12T00:38:52.651Z,-1.51
2023-03-12T00:41:20.508Z,-1.52
2023-03-12T00:43:48.100Z,-1.52
2023-03-12T00:46:14.717Z,-1.50
2023-03-12T00:48:42.699Z,-1.48
2023-03-12T00:51:09.388Z,-1.44
2023-03-12T00:53:36.807Z,-1.44
2023-03-12T00:56:05.161Z,-1.45
2023-03-12T00:58:32.047Z,-1.45
2023-03-12T01:00:58.738Z,-1.44
2023-03-12T01:03:25.483Z,-1.42
2023-03-12T01:05:55.252Z,-1.39
2023-03-12T01:08:25.144Z,-1.37
2023-03-12T01:10:52.166Z,-1.36
2023-03-12T01:13:18.910Z,-1.34
2023-03-12T01:15:45.648Z,-1.31
2023-03-12T01:18:12.328Z,-1.21
2023-03-12T01:20:40.381Z,-1.03
2023-03-12T01:23:07.574Z,-0.91
2023-03-12T01:25:34.820Z,-0.84
2023-03-12T01:28:02.128Z,-0.84
2023-03-12T01:30:29.961Z,-0.81
2023-03-12T01:32:56.583Z,-0.73
2023-03-12T01:35:23.231Z,-0.64
2023-03-12T01:37:50.258Z,-0.64
2023-03-12T01:40:19.728Z,-0.59
2023-03-12T01:42:57.109Z,-0.54
2023-03-12T01:46:01.469Z,-0.50
2023-03-12T01:48:34.171Z,-0.49
2023-03-12T01:51:02.619Z,-0.46
2023-03-12T01:53:30.271Z,-0.44
2023-03-12T01:55:59.425Z,-0.45
2023-03-12T01:58:27.687Z,-0.48
2023-03-12T02:00:55.143Z,-0.50
2023-03-12T02:03:22.494Z,-0.48
2023-03-12T02:05:55.087Z,-0.43
2023-03-12T02:08:23.609Z,-0.41
2023-03-12T02:10:50.591Z,-0.41
2023-03-12T02:13:17.344Z,-0.37
2023-03-12T02:15:43.955Z,-0.34
2023-03-12T02:18:16.502Z,-0.30
2023-03-12T02:21:04.177Z,-0.31
2023-03-12T02:23:35.296Z,-0.28
2023-03-12T02:26:04.188Z,-0.29
2023-03-12T02:28:34.080Z,-0.32
2023-03-12T02:31:03.633Z,-0.39
2023-03-12T02:33:30.239Z,-0.47
2023-03-12T02:35:56.926Z,-0.57
2023-03-12T02:38:46.869Z,-0.66
2023-03-12T02:41:18.734Z,-0.74
2023-03-12T02:43:48.846Z,-0.77
2023-03-12T02:46:15.837Z,-0.78
2023-03-12T02:48:42.500Z,-0.71
2023-03-12T02:51:09.450Z,-0.60
2023-03-12T02:53:36.154Z,-0.50
2023-03-12T02:56:02.756Z,-0.42
2023-03-12T02:58:29.392Z,-0.37
2023-03-12T03:00:55.961Z,-0.37
2023-03-12T03:03:22.656Z,-0.33
2023-03-12T03:05:49.425Z,-0.30
2023-03-12T03:08:16.005Z,-0.28
2023-03-12T03:10:42.654Z,-0.28
2023-03-12T03:13:09.245Z,-0.30
2023-03-12T03:15:35.829Z,-0.29
2023-03-12T03:18:04.005Z,-0.31
2023-03-12T03:20:31.862Z,-0.30
2023-03-12T03:22:58.452Z,-0.34
2023-03-12T03:25:25.534Z,-0.35
2023-03-12T03:27:52.177Z,-0.36
2023-03-12T03:30:19.328Z,-0.35
2023-03-12T03:32:45.989Z,-0.43
2023-03-12T03:35:12.730Z,-0.51
2023-03-12T03:37:39.502Z,-0.63
2023-03-12T03:40:07.021Z,-0.71
2023-03-12T03:42:33.537Z,-0.80
2023-03-12T03:45:00.096Z,-0.86
2023-03-12T03:47:26.644Z,-0.90
2023-03-12T03:49:53.197Z,-0.98
2023-03-12T03:52:19.802Z,-1.03
2023-03-12T03:54:46.373Z,-1.08
2023-03-12T03:57:12.904Z,-1.12
2023-03-12T03:59:39.426Z,-1.12
2023-03-12T04:02:05.997Z,-1.18
2023-03-12T04:04:32.614Z,-1.15
2023-03-12T04:06:59.173Z,-1.17
2023-03-12T04:09:26.028Z,-1.20
2023-03-12T04:11:52.594Z,-1.22
2023-03-12T04:14:19.242Z,-1.26
2023-03-12T04:16:45.781Z,-1.26
2023-03-12T04:19:12.385Z,-1.26
2023-03-12T04:21:39.653Z,-1.23
2023-03-12T04:24:07.812Z,-1.20
2023-03-12T04:26:34.427Z,-1.13
2023-03-12T04:29:01.157Z,-1.00
2023-03-12T04:31:27.902Z,-0.88
2023-03-12T04:33:54.475Z,-0.86
2023-03-12T04:36:21.487Z,-0.87
2023-03-12T04:38:48.048Z,-0.85
2023-03-12T04:41:16.238Z,-0.74
2023-03-12T04:43:43.342Z,-0.70
2023-03-12T04:46:10.281Z,-0.65
2023-03-12T04:48:37.098Z,-0.63
2023-03-12T04:51:05.160Z,-0.56
2023-03-12T04:53:32.212Z,-0.53
2023-03-12T04:55:59.455Z,-0.51
2023-03-12T04:58:26.023Z,-0.49
2023-03-12T05:00:52.639Z,-0.51
2023-03-12T05:03:19.327Z,-0.56
2023-03-12T05:05:45.879Z,-0.66
2023-03-12T05:08:12.522Z,-0.74
2023-03-12T05:10:39.487Z,-0.84
2023-03-12T05:13:17.078Z,-0.87
2023-03-12T05:15:44.331Z,-0.93
2023-03-12T05:18:10.901Z,-0.99
2023-03-12T05:20:37.434Z,-1.01
2023-03-12T05:23:04.046Z,-0.96
2023-03-12T05:25:30.709Z,-0.95
2023-03-12T05:27:57.398Z,-0.94
2023-03-12T05:30:23.987Z,-0.91
2023-03-12T05:32:50.600Z,-0.85
2023-03-12T05:35:17.348Z,-0.78
2023-03-12T05:37:44.066Z,-0.70
2023-03-12T05:40:12.564Z,-0.46
2023-03-12T05:42:39.253Z,-0.21
2023-03-12T05:45:06.468Z,0.05
2023-03-12T05:47:33.007Z,0.21
2023-03-12T05:49:59.676Z,0.25
2023-03-12T05:52:26.275Z,0.26
2023-03-12T05:54:53.126Z,0.09
2023-03-12T05:57:19.748Z,-0.13
2023-03-12T05:59:46.300Z,-0.30
2023-03-12T06:02:12.970Z,-0.39
2023-03-12T06:04:39.547Z,-0.13
2023-03-12T06:07:06.139Z,0.23
2023-03-12T06:09:32.704Z,0.56
2023-03-12T06:11:59.283Z,0.78
2023-03-12T06:14:25.884Z,0.90
2023-03-12T06:16:52.492Z,1.00
2023-03-12T06:19:19.087Z,1.08
2023-03-12T06:21:45.696Z,1.10
2023-03-12T06:24:12.272Z,1.18
2023-03-12T06:26:39.035Z,1.29
2023-03-12T06:29:05.617Z,1.35
2023-03-12T06:31:32.232Z,1.35
2023-03-12T06:33:58.809Z,1.45
2023-03-12T06:36:25.604Z,1.41
2023-03-12T06:38:52.290Z,1.47
2023-03-12T06:41:20.995Z,1.54
2023-03-12T06:43:48.005Z,1.54
2023-03-12T06:46:17.801Z,1.25
2023-03-12T06:48:46.498Z,0.94
2023-03-12T06:51:15.082Z,0.75
2023-03-12T06:53:42.702Z,0.64
2023-03-12T06:56:09.916Z,0.53
2023-03-12T06:58:36.816Z,0.52
2023-03-12T07:01:04.019Z,0.46
2023-03-12T07:03:30.985Z,0.40
2023-03-12T07:05:58.437Z,0.42
2023-03-12T07:08:26.260Z,0.40
2023-03-12T07:10:53.091Z,0.34
2023-03-12T07:13:19.688Z,0.39
2023-03-12T07:15:46.640Z,0.39
2023-03-12T07:18:13.538Z,0.42
2023-03-12T07:20:42.646Z,0.49
2023-03-12T07:23:09.839Z,0.52
2023-03-12T07:25:41.592Z,0.58
2023-03-12T07:28:09.266Z,0.60
2023-03-12T07:30:36.196Z,0.64
2023-03-12T07:33:07.735Z,0.70
2023-03-12T07:35:34.907Z,0.72
2023-03-12T07:38:02.293Z,0.77
2023-03-12T07:40:29.394Z,0.86
2023-03-12T07:42:56.053Z,0.92
2023-03-12T07:45:23.994Z,0.97
2023-03-12T07:47:51.211Z,0.97
2023-03-12T07:50:19.326Z,1.03
2023-03-12T07:52:46.894Z,1.09
2023-03-12T07:55:13.945Z,1.19
2023-03-12T07:57:40.865Z,1.20
2023-03-12T08:00:10.406Z,1.27
2023-03-12T08:02:37.614Z,1.27
2023-03-12T08:05:04.681Z,1.31
2023-03-12T08:07:32.496Z,1.39
2023-03-12T08:10:00.063Z,1.47
2023-03-12T08:12:27.788Z,1.48
2023-03-12T08:14:54.753Z,1.56
2023-03-12T08:17:22.072Z,1.62
2023-03-12T08:19:48.836Z,1.66
2023-03-12T08:22:15.422Z,1.67
2023-03-12T08:24:42.068Z,1.71
2023-03-12T08:27:09.268Z,1.76
2023-03-12T08:29:35.785Z,1.81
2023-03-12T08:32:05.304Z,1.90
2023-03-12T08:34:33.983Z,1.96
2023-03-12T08:37:01.446Z,2.00
2023-03-12T08:39:28.472Z,1.97
2023-03-12T08:41:55.670Z,2.01
2023-03-12T08:44:25.750Z,2.04
2023-03-12T08:46:52.875Z,2.04
2023-03-12T08:49:20.691Z,2.11
2023-03-12T08:51:47.741Z,2.14
2023-03-12T08:54:14.473Z,2.21
2023-03-12T08:56:43.255Z,2.25
2023-03-12T08:59:11.292Z,2.32
2023-03-12T09:01:38.078Z,2.40
2023-03-12T09:04:05.976Z,2.53
2023-03-12T09:06:35.347Z,2.51
2023-03-12T09:09:05.837Z,2.65
2023-03-12T09:11:34.079Z,2.83
2023-03-12T09:14:46.276Z,2.93
2023-03-12T09:16:48.722Z,3.21
2023-03-12T09:19:15.841Z,3.33
2023-03-12T09:21:42.836Z,3.46
2023-03-12T09:24:11.295Z,3.73
2023-03-12T09:26:37.874Z,3.89
2023-03-12T09:29:04.433Z,4.04
2023-03-12T09:31:31.618Z,4.13
2023-03-12T09:33:58.229Z,4.33
2023-03-12T09:36:24.793Z,4.39
2023-03-12T09:38:51.518Z,4.62
2023-03-12T09:41:21.146Z,4.86
2023-03-12T09:44:05.772Z,5.00
2023-03-12T09:46:41.421Z,4.73
2023-03-12T09:49:19.702Z,4.62
2023-03-12T09:51:54.038Z,4.53
2023-03-12T09:54:42.627Z,4.43
2023-03-12T09:57:15.300Z,4.15
2023-03-12T09:59:41.980Z,4.06
2023-03-12T10:02:44.266Z,4.07
2023-03-12T10:05:26.471Z,3.84
2023-03-12T10:08:23.118Z,3.60
2023-03-12T10:10:50.611Z,3.62
2023-03-12T10:13:23.280Z,3.84
2023-03-12T10:16:08.497Z,4.10
2023-03-12T10:18:48.415Z,4.40
2023-03-12T10:21:37.763Z,4.60
2023-03-12T10:24:27.981Z,4.80
2023-03-12T10:26:58.288Z,4.75
2023-03-12T10:29:37.674Z,4.45
2023-03-12T10:32:30.127Z,4.45
2023-03-12T10:35:00.324Z,4.58
2023-03-12T10:37:35.790Z,4.84
2023-03-12T10:40:04.731Z,5.01
2023-03-12T10:42:31.823Z,5.00
2023-03-12T10:45:18.391Z,5.09
2023-03-12T10:47:52.105Z,5.04
2023-03-12T10:50:27.424Z,4.87
2023-03-12T10:53:14.199Z,4.54
2023-03-12T10:55:40.815Z,4.31
2023-03-12T10:58:07.696Z,4.30
2023-03-12T11:00:34.409Z,4.43
2023-03-12T11:03:06.652Z,4.60
2023-03-12T11:05:49.051Z,4.83
2023-03-12T11:08:24.701Z,4.99
2023-03-12T11:10:51.400Z,4.98
2023-03-12T11:13:28.800Z,4.86
2023-03-12T11:16:16.790Z,4.88
2023-03-12T11:19:01.514Z,4.78
2023-03-12T11:21:30.620Z,5.01
2023-03-12T11:23:57.258Z,5.23
2023-03-12T11:26:30.295Z,5.25
2023-03-12T11:29:02.852Z,5.33
2023-03-12T11:31:34.109Z,5.33
2023-03-12T11:34:08.033Z,5.29
2023-03-12T11:36:43.886Z,5.28
2023-03-12T11:39:36.657Z,5.11
2023-03-12T11:42:25.437Z,4.92
2023-03-12T11:45:19.281Z,4.65
2023-03-12T11:48:04.305Z,4.46
2023-03-12T11:50:59.089Z,4.49
2023-03-12T11:54:02.729Z,4.39
2023-03-12T11:56:33.934Z,4.37
2023-03-12T11:59:09.545Z,4.40
2023-03-12T12:01:51.131Z,4.36
2023-03-12T12:04:45.434Z,4.27
2023-03-12T12:07:33.889Z,4.26
2023-03-12T12:10:15.559Z,4.30
2023-03-12T12:13:03.935Z,4.38
2023-03-12T12:15:57.225Z,4.51
2023-03-12T12:18:30.050Z,4.65
2023-03-12T12:20:56.715Z,4.72
2023-03-12T12:23:44.252Z,4.85
2023-03-12T12:26:14.169Z,4.97
2023-03-12T12:28:55.198Z,5.10
2023-03-12T12:31:30.486Z,5.14
2023-03-12T12:34:21.493Z,5.10
2023-03-12T12:37:04.117Z,5.13
2023-03-12T12:39:40.304Z,5.22
2023-03-12T12:42:11.705Z,5.28
2023-03-12T12:44:49.604Z,5.30
2023-03-12T12:47:22.832Z,5.36
2023-03-12T12:49:54.397Z,5.49
2023-03-12T12:52:22.151Z,5.63
2023-03-12T12:54:51.370Z,5.70
2023-03-12T12:57:24.851Z,5.82
2023-03-12T12:59:54.416Z,5.91
2023-03-12T13:02:26.438Z,5.99
2023-03-12T13:04:58.378Z,5.93
2023-03-12T13:07:27.749Z,5.92
2023-03-12T13:09:57.363Z,5.91
2023-03-12T13:12:35.474Z,5.92
2023-03-12T13:15:48.369Z,5.88
2023-03-12T13:18:20.029Z,5.95
2023-03-12T13:20:57.963Z,6.17
2023-03-12T13:23:30.645Z,6.41
2023-03-12T13:26:08.662Z,6.60
2023-03-12T13:29:11.812Z,6.77
2023-03-12T13:31:49.084Z,6.83
2023-03-12T13:34:15.748Z,6.83
2023-03-12T13:36:45.391Z,6.79
2023-03-12T13:39:35.069Z,6.71
2023-03-12T13:42:25.025Z,6.73
2023-03-12T13:44:53.403Z,6.75
2023-03-12T13:47:28.835Z,6.75
2023-03-12T13:50:24.898Z,6.67
2023-03-12T13:53:15.547Z,6.68
2023-03-12T13:55:45.000Z,6.77
2023-03-12T13:58:23.220Z,6.90
2023-03-12T14:01:01.176Z,7.08
2023-03-12T14:03:40.270Z,7.06
2023-03-12T14:06:14.212Z,6.87
2023-03-12T14:08:43.631Z,6.76
2023-03-12T14:11:28.628Z,6.70
2023-03-12T14:14:32.925Z,6.63
2023-03-12T14:17:05.716Z,6.76
2023-03-12T14:19:34.876Z,6.81
2023-03-12T14:22:05.551Z,6.73
2023-03-12T14:24:35.526Z,6.56
2023-03-12T14:27:06.464Z,6.38
2023-03-12T14:29:41.250Z,6.18
2023-03-12T14:32:17.273Z,6.11
2023-03-12T14:35:03.674Z,6.05
2023-03-12T14:37:40.330Z,6.06
2023-03-12T14:40:22.246Z,6.05
2023-03-12T14:42:49.080Z,5.94
2023-03-12T14:45:20.704Z,5.89
2023-03-12T14:47:52.780Z,5.93
2023-03-12T14:50:20.668Z,6.03
2023-03-12T14:52:49.715Z,5.92
2023-03-12T14:55:22.621Z,5.83
2023-03-12T14:57:50.421Z,5.79
2023-03-12T15:00:24.436Z,5.80
2023-03-12T15:02:53.846Z,5.83
2023-03-12T15:05:21.559Z,5.75
2023-03-12T15:07:50.084Z,5.65
2023-03-12T15:10:25.786Z,5.64
2023-03-12T15:12:55.836Z,5.53
2023-03-12T15:15:42.052Z,5.52
2023-03-12T15:18:13.981Z,5.52
2023-03-12T15:20:40.830Z,5.49
2023-03-12T15:23:12.184Z,5.43
2023-03-12T15:25:39.727Z,5.38
2023-03-12T15:28:15.048Z,5.29
2023-03-12T15:30:42.821Z,5.23
2023-03-12T15:33:24.648Z,5.14
2023-03-12T15:36:27.728Z,5.07
2023-03-12T15:39:01.148Z,5.10
2023-03-12T15:41:49.616Z,5.05
2023-03-12T15:44:22.668Z,5.06
2023-03-12T15:46:53.845Z,5.08
2023-03-12T15:49:31.212Z,5.09
2023-03-12T15:52:05.306Z,5.09
2023-03-12T15:54:32.459Z,5.15
2023-03-12T15:57:19.951Z,5.17
2023-03-12T16:00:06.655Z,5.13
2023-03-12T16:02:48.171Z,5.07
2023-03-12T16:05:14.963Z,5.06
2023-03-12T16:07:41.556Z,5.01
2023-03-12T16:10:14.015Z,4.96
2023-03-12T16:12:41.900Z,4.97
2023-03-12T16:15:14.607Z,4.91
2023-03-12T16:17:41.408Z,4.84
2023-03-12T16:20:11.889Z,4.79
2023-03-12T16:22:38.416Z,4.73
2023-03-12T16:25:05.484Z,4.64
2023-03-12T16:27:34.331Z,4.57
2023-03-12T16:30:01.496Z,4.51
2023-03-12T16:32:28.265Z,4.44
2023-03-12T16:34:54.827Z,4.39
2023-03-12T16:37:21.338Z,4.34
2023-03-12T16:39:48.679Z,4.29
2023-03-12T16:42:18.229Z,4.21
2023-03-12T16:44:46.524Z,4.17
2023-03-12T16:47:14.227Z,4.15
2023-03-12T16:49:41.004Z,4.13
2023-03-12T16:52:22.761Z,4.06
2023-03-12T16:54:50.190Z,4.01
2023-03-12T16:57:24.613Z,3.99
2023-03-12T16:59:51.349Z,3.97
2023-03-12T17:02:19.134Z,3.93
2023-03-12T17:04:45.827Z,3.87
2023-03-12T17:07:12.475Z,3.86
2023-03-12T17:09:39.268Z,3.77
2023-03-12T17:12:10.932Z,3.72
2023-03-12T17:14:37.603Z,3.66
2023-03-12T17:17:04.215Z,3.63
2023-03-12T17:19:30.866Z,3.58
2023-03-12T17:24:32.686Z,3.46
2023-03-12T17:26:59.349Z,3.44
2023-03-12T17:29:26.056Z,3.39
2023-03-12T17:31:52.904Z,3.31
2023-03-12T17:34:19.504Z,3.31
2023-03-12T17:36:46.116Z,3.25
2023-03-12T17:39:12.841Z,3.25
2023-03-12T17:41:39.389Z,3.20
2023-03-12T17:44:07.252Z,3.17
2023-03-12T17:46:34.311Z,3.18
2023-03-12T17:49:01.059Z,3.14
2023-03-12T17:51:27.728Z,3.11
2023-03-12T17:53:54.891Z,3.11
2023-03-12T17:56:21.650Z,3.12
2023-03-12T17:58:48.268Z,3.10
2023-03-12T18:01:15.727Z,3.09
2023-03-12T18:03:44.261Z,3.08
2023-03-12T18:06:11.901Z,3.04
2023-03-12T18:08:38.725Z,3.04
2023-03-12T18:11:05.617Z,3.04
2023-03-12T18:13:32.363Z,3.05
2023-03-12T18:15:59.096Z,3.04
2023-03-12T18:18:26.928Z,3.05
2023-03-12T18:20:54.045Z,3.09
2023-03-12T18:23:20.837Z,3.13
2023-03-12T18:25:47.517Z,3.23
2023-03-12T18:28:15.295Z,3.30
2023-03-12T18:30:41.976Z,3.37
2023-03-12T18:33:08.569Z,3.38
2023-03-12T18:35:37.946Z,3.43
2023-03-12T18:38:04.587Z,3.43
2023-03-12T18:40:33.104Z,3.41
2023-03-12T18:43:00.363Z,3.42
2023-03-12T18:45:27.964Z,3.42
2023-03-12T18:47:54.676Z,3.42
2023-03-12T18:50:21.657Z,3.44
2023-03-12T18:52:48.330Z,3.46
2023-03-12T18:55:17.734Z,3.50
2023-03-12T18:57:45.404Z,3.56
2023-03-12T19:00:14.651Z,3.62
2023-03-12T19:02:42.383Z,3.59
2023-03-12T19:05:11.107Z,3.59
2023-03-12T19:07:39.163Z,3.58
2023-03-12T19:10:07.755Z,3.51
2023-03-12T19:12:45.440Z,3.47
2023-03-12T19:15:17.532Z,3.47
2023-03-12T19:17:44.068Z,3.43
2023-03-12T19:20:11.609Z,3.43
2023-03-12T19:22:38.424Z,3.43
2023-03-12T19:25:05.459Z,3.41
2023-03-12T19:27:32.040Z,3.39
2023-03-12T19:29:58.938Z,3.39
2023-03-12T19:32:33.251Z,3.44
2023-03-12T19:35:08.721Z,3.39
2023-03-12T19:37:35.442Z,3.41
2023-03-12T19:40:02.018Z,3.38
2023-03-12T19:42:28.717Z,3.36
2023-03-12T19:44:55.382Z,3.37
2023-03-12T19:47:22.463Z,3.37
2023-03-12T19:49:49.061Z,3.38
2023-03-12T19:52:16.014Z,3.36
2023-03-12T19:54:47.049Z,3.33
2023-03-12T19:57:21.376Z,3.31
2023-03-12T19:59:48.001Z,3.30
2023-03-12T20:02:15.291Z,3.27
2023-03-12T20:04:41.915Z,3.30
2023-03-12T20:07:09.153Z,3.34
2023-03-12T20:09:35.980Z,3.37
2023-03-12T20:12:02.578Z,3.43
2023-03-12T20:14:29.408Z,3.46
2023-03-12T20:16:56.274Z,3.52
2023-03-12T20:19:22.989Z,3.52
2023-03-12T20:21:50.450Z,3.50
2023-03-12T20:24:17.698Z,3.53
2023-03-12T20:26:45.421Z,3.58
2023-03-12T20:29:12.093Z,3.58
2023-03-12T20:31:39.651Z,3.56
2023-03-12T20:34:06.470Z,3.51
2023-03-12T20:36:33.106Z,3.45
2023-03-12T20:38:59.705Z,3.44
2023-03-12T20:41:29.336Z,3.43
2023-03-12T20:44:01.195Z,3.41
2023-03-12T20:46:28.291Z,3.39
2023-03-12T20:48:56.773Z,3.43
2023-03-12T20:51:24.859Z,3.41
2023-03-12T20:53:51.514Z,3.34
2023-03-12T20:56:18.283Z,3.28
2023-03-12T20:58:44.818Z,3.23
2023-03-12T21:01:11.477Z,3.15
2023-03-12T21:03:38.060Z,3.09
2023-03-12T21:06:04.920Z,3.06
2023-03-12T21:08:32.893Z,3.01
2023-03-12T21:10:59.559Z,3.03
2023-03-12T21:13:26.680Z,2.95
2023-03-12T21:15:53.458Z,2.91
2023-03-12T21:18:20.267Z,2.88
2023-03-12T21:20:47.081Z,2.80
2023-03-12T21:23:13.819Z,2.83
2023-03-12T21:25:41.232Z,2.78
2023-03-12T21:28:09.911Z,2.70
2023-03-12T21:30:37.461Z,2.66
2023-03-12T21:33:04.634Z,2.64
2023-03-12T21:35:31.414Z,2.66
2023-03-12T21:37:58.973Z,2.56
2023-03-12T21:40:25.797Z,2.50
2023-03-12T21:42:52.526Z,2.43
2023-03-12T21:45:19.484Z,2.38
2023-03-12T21:47:46.064Z,2.40
2023-03-12T21:50:12.664Z,2.29
2023-03-12T21:52:41.497Z,2.22
2023-03-12T21:55:10.429Z,2.20
2023-03-12T21:57:37.080Z,2.15
2023-03-12T22:00:04.984Z,2.10
2023-03-12T22:02:32.073Z,2.03
2023-03-12T22:05:00.266Z,2.00
2023-03-12T22:07:30.155Z,2.04
2023-03-12T22:09:57.318Z,2.01
2023-03-12T22:12:24.006Z,1.95
2023-03-12T22:14:50.849Z,1.93
2023-03-12T22:17:17.559Z,1.93
2023-03-12T22:19:44.450Z,1.92
2023-03-12T22:22:11.576Z,1.92
2023-03-12T22:24:38.210Z,1.84
2023-03-12T22:27:07.407Z,1.78
2023-03-12T22:29:34.523Z,1.77
2023-03-12T22:32:01.241Z,1.77
2023-03-12T22:34:29.535Z,1.72
2023-03-12T22:36:56.348Z,1.74
2023-03-12T22:39:22.977Z,1.75
2023-03-12T22:41:53.698Z,1.70
2023-03-12T22:44:20.487Z,1.68
2023-03-12T22:46:47.094Z,1.63
2023-03-12T22:49:17.357Z,1.65
2023-03-12T22:51:44.155Z,1.64
2023-03-12T22:54:10.869Z,1.63
2023-03-12T22:56:37.470Z,1.59
2023-03-12T22:59:04.217Z,1.57
2023-03-12T23:01:30.855Z,1.56
2023-03-12T23:03:57.768Z,1.52
2023-03-12T23:06:26.797Z,1.49
2023-03-12T23:08:56.068Z,1.49
2023-03-12T23:11:25.370Z,1.47
2023-03-12T23:13:52.704Z,1.53
2023-03-12T23:16:22.610Z,1.46
2023-03-12T23:18:49.403Z,1.45
2023-03-12T23:21:21.160Z,1.48
2023-03-12T23:23:49.034Z,1.53
2023-03-12T23:26:20.923Z,1.49
2023-03-12T23:28:47.864Z,1.47
2023-03-12T23:31:15.830Z,1.52
2023-03-12T23:33:42.854Z,1.55
2023-03-12T23:36:16.232Z,1.53
2023-03-12T23:38:44.024Z,1.60
2023-03-12T23:41:14.286Z,1.58
2023-03-12T23:43:41.061Z,1.58
2023-03-12T23:46:08.927Z,1.60
2023-03-12T23:48:37.940Z,1.64
2023-03-12T23:51:05.782Z,1.60
2023-03-12T23:53:33.226Z,1.59
2023-03-12T23:56:01.368Z,1.59
2023-03-12T23:58:28.581Z,1.60
